createdAt,value
2022-11-23T00:00:19.357Z,7.87
2022-11-23T00:05:21.451Z,7.89
2022-11-23T00:10:23.202Z,7.88
2022-11-23T00:15:24.845Z,7.89
2022-11-23T00:20:26.760Z,7.87
2022-11-23T00:25:29.788Z,7.86
2022-11-23T00:30:31.626Z,7.86
2022-11-23T00:35:33.421Z,7.85
2022-11-23T00:40:37.528Z,7.86
2022-11-23T00:45:40.645Z,7.85
2022-11-23T00:50:42.261Z,7.86
2022-11-23T00:55:54.565Z,7.86
2022-11-23T01:01:12.611Z,7.86
2022-11-23T01:06:20.065Z,7.86
2022-11-23T01:11:23.119Z,7.85
2022-11-23T01:16:28.299Z,7.84
2022-11-23T01:21:31.326Z,7.83
2022-11-23T01:26:34.987Z,7.81
2022-11-23T01:31:40.587Z,7.81
2022-11-23T01:36:48.881Z,7.80
2022-11-23T01:41:53.647Z,7.79
2022-11-23T01:46:58.778Z,7.78
2022-11-23T01:52:07.003Z,7.78
2022-11-23T01:57:12.473Z,7.75
2022-11-23T02:02:17.666Z,7.74
2022-11-23T02:07:20.683Z,7.76
2022-11-23T02:12:22.457Z,7.78
2022-11-23T02:17:24.095Z,7.77
2022-11-23T02:22:44.795Z,7.78
2022-11-23T02:27:47.231Z,7.79
2022-11-23T02:32:49.189Z,7.78
2022-11-23T02:37:53.788Z,7.80
2022-11-23T02:42:55.587Z,7.81
2022-11-23T02:47:57.297Z,7.80
2022-11-23T02:52:59.161Z,7.81
2022-11-23T02:58:00.845Z,7.81
2022-11-23T03:03:04.458Z,7.80
2022-11-23T03:08:07.872Z,7.80
2022-11-23T03:13:09.771Z,7.79
2022-11-23T03:18:13.689Z,7.80
2022-11-23T03:23:15.624Z,7.78
2022-11-23T03:28:19.216Z,7.75
2022-11-23T03:33:21.351Z,7.73
2022-11-23T03:38:23.753Z,7.71
2022-11-23T03:43:26.892Z,7.70
2022-11-23T03:48:29.864Z,7.68
2022-11-23T03:53:32.461Z,7.66
2022-11-23T03:58:35.637Z,7.64
2022-11-23T04:03:41.440Z,7.62
2022-11-23T04:08:48.699Z,7.59
2022-11-23T04:13:57.962Z,7.58
2022-11-23T04:19:00.067Z,7.58
2022-11-23T04:24:02.201Z,7.58
2022-11-23T04:29:07.733Z,7.56
2022-11-23T04:34:11.491Z,7.54
2022-11-23T04:39:14.291Z,7.54
2022-11-23T04:44:35.448Z,7.50
2022-11-23T04:49:40.172Z,7.49
2022-11-23T04:54:42.911Z,7.49
2022-11-23T04:59:44.772Z,7.50
2022-11-23T05:04:46.719Z,7.52
2022-11-23T05:09:50.766Z,7.50
2022-11-23T05:14:55.096Z,7.50
2022-11-23T05:20:03.892Z,7.52
2022-11-23T05:25:09.198Z,7.53
2022-11-23T05:30:13.587Z,7.54
2022-11-23T05:35:16.728Z,7.53
2022-11-23T05:40:19.878Z,7.53
2022-11-23T05:45:24.222Z,7.52
2022-11-23T05:50:28.718Z,7.51
2022-11-23T05:55:49.258Z,7.50
2022-11-23T06:00:52.870Z,7.51
2022-11-23T06:05:54.594Z,7.51
2022-11-23T06:11:03.476Z,7.52
2022-11-23T06:16:06.174Z,7.53
2022-11-23T06:21:18.498Z,7.52
2022-11-23T06:26:21.916Z,7.52
2022-11-23T06:31:23.885Z,7.52
2022-11-23T06:36:25.541Z,7.53
2022-11-23T06:41:32.389Z,7.52
2022-11-23T06:46:35.964Z,7.52
2022-11-23T06:51:37.760Z,7.53
2022-11-23T06:56:40.541Z,7.54
2022-11-23T07:01:43.987Z,7.53
2022-11-23T07:06:47.499Z,7.54
2022-11-23T07:12:00.510Z,7.54
2022-11-23T07:17:02.347Z,7.55
2022-11-23T07:22:04.105Z,7.56
2022-11-23T07:27:06.057Z,7.56
2022-11-23T07:32:08.942Z,7.56
2022-11-23T07:37:11.476Z,7.56
2022-11-23T07:47:37.374Z,7.58
2022-11-23T07:52:40.492Z,7.59
2022-11-23T07:57:42.124Z,7.63
2022-11-23T08:03:04.192Z,7.63
2022-11-23T08:08:06.062Z,7.65
2022-11-23T08:13:07.928Z,7.67
2022-11-23T08:18:10.038Z,7.69
2022-11-23T08:23:11.801Z,7.70
2022-11-23T08:28:13.472Z,7.73
2022-11-23T08:33:15.773Z,7.77
2022-11-23T08:38:17.481Z,7.80
2022-11-23T08:43:19.418Z,7.82
2022-11-23T08:48:21.106Z,7.88
2022-11-23T08:53:22.958Z,7.91
2022-11-23T08:58:24.740Z,7.94
2022-11-23T09:03:27.993Z,7.99
2022-11-23T09:08:29.786Z,8.02
2022-11-23T09:13:32.008Z,8.06
2022-11-23T09:18:35.623Z,8.10
2022-11-23T09:23:37.227Z,8.13
2022-11-23T09:28:44.373Z,8.17
2022-11-23T09:33:46.469Z,8.21
2022-11-23T09:38:57.124Z,8.24
2022-11-23T09:44:04.829Z,8.27
2022-11-23T09:49:18.793Z,8.30
2022-11-23T09:54:27.710Z,8.32
2022-11-23T09:59:30.054Z,8.37
2022-11-23T10:04:35.599Z,8.43
2022-11-23T10:09:45.806Z,8.50
2022-11-23T10:15:03.148Z,8.57
2022-11-23T10:20:20.563Z,8.62
2022-11-23T10:25:23.772Z,8.67
2022-11-23T10:30:25.782Z,8.70
2022-11-23T10:35:35.773Z,8.74
2022-11-23T10:40:40.888Z,8.78
2022-11-23T10:45:42.739Z,8.80
2022-11-23T10:50:44.991Z,8.84
2022-11-23T10:55:54.936Z,8.87
2022-11-23T11:01:05.603Z,8.87
2022-11-23T11:06:09.463Z,8.90
2022-11-23T11:11:26.440Z,8.93
2022-11-23T11:16:47.768Z,8.95
2022-11-23T11:21:49.617Z,8.98
2022-11-23T11:27:03.486Z,9.02
2022-11-23T11:32:34.767Z,9.05
2022-11-23T11:37:45.878Z,9.06
2022-11-23T11:43:03.767Z,9.10
2022-11-23T11:48:12.770Z,9.13
2022-11-23T11:53:23.309Z,9.15
2022-11-23T11:58:26.432Z,9.18
2022-11-23T12:03:43.011Z,9.22
2022-11-23T12:08:55.666Z,9.22
2022-11-23T12:14:02.031Z,9.26
2022-11-23T12:19:19.022Z,9.28
2022-11-23T12:24:40.744Z,9.29
2022-11-23T12:30:11.546Z,9.29
2022-11-23T12:35:26.411Z,9.33
2022-11-23T12:40:50.090Z,9.39
2022-11-23T12:46:02.150Z,9.39
2022-11-23T12:51:58.521Z,9.43
2022-11-23T12:57:10.595Z,9.47
2022-11-23T13:02:58.800Z,9.52
2022-11-23T13:08:29.415Z,9.58
2022-11-23T13:14:02.444Z,9.60
2022-11-23T13:19:10.155Z,9.63
2022-11-23T13:24:28.862Z,9.66
2022-11-23T13:29:50.702Z,9.72
2022-11-23T13:34:52.372Z,9.77
2022-11-23T13:39:57.630Z,9.82
2022-11-23T13:45:21.267Z,9.89
2022-11-23T13:50:23.028Z,9.99
2022-11-23T13:55:35.255Z,10.07
2022-11-23T14:00:51.765Z,10.18
2022-11-23T14:05:56.919Z,10.28
2022-11-23T14:11:00.751Z,10.36
2022-11-23T14:16:04.903Z,10.46
2022-11-23T14:21:16.079Z,10.54
2022-11-23T14:26:29.502Z,10.59
2022-11-23T14:31:34.853Z,10.63
2022-11-23T14:37:09.844Z,10.68
2022-11-23T14:42:15.238Z,10.72
2022-11-23T14:47:26.606Z,10.72
2022-11-23T14:52:32.443Z,10.70
2022-11-23T14:57:44.185Z,10.67
2022-11-23T15:02:45.925Z,10.61
2022-11-23T15:08:12.137Z,10.53
2022-11-23T15:13:20.316Z,10.44
2022-11-23T15:18:39.106Z,10.31
2022-11-23T15:23:52.676Z,10.22
2022-11-23T15:28:54.410Z,10.14
2022-11-23T15:34:12.026Z,10.08
2022-11-23T15:39:20.029Z,10.02
2022-11-23T15:44:26.092Z,9.97
2022-11-23T15:49:29.488Z,9.92
2022-11-23T15:54:36.434Z,9.89
2022-11-23T15:59:50.328Z,9.83
2022-11-23T16:05:15.729Z,9.80
2022-11-23T16:10:20.922Z,9.76
2022-11-23T16:15:49.099Z,9.75
2022-11-23T16:21:05.159Z,9.72
2022-11-23T16:26:07.015Z,9.69
2022-11-23T16:31:36.317Z,9.66
2022-11-23T16:36:37.972Z,9.63
2022-11-23T16:41:40.407Z,9.61
2022-11-23T16:46:43.900Z,9.60
2022-11-23T16:51:56.162Z,9.58
2022-11-23T16:56:58.600Z,9.53
2022-11-23T17:02:00.210Z,9.51
2022-11-23T17:07:01.997Z,9.49
2022-11-23T17:12:08.447Z,9.48
2022-11-23T17:17:16.225Z,9.48
2022-11-23T17:22:20.252Z,9.45
2022-11-23T17:27:25.512Z,9.44
2022-11-23T17:32:27.956Z,9.41
2022-11-23T17:37:29.749Z,9.40
2022-11-23T17:42:31.468Z,9.39
2022-11-23T17:47:33.094Z,9.38
2022-11-23T17:52:35.600Z,9.35
2022-11-23T17:57:37.348Z,9.32
2022-11-23T18:02:38.894Z,9.30
2022-11-23T18:07:41.509Z,9.25
2022-11-23T18:12:44.785Z,9.25
2022-11-23T18:17:46.816Z,9.23
2022-11-23T18:22:48.599Z,9.22
2022-11-23T18:27:50.915Z,9.19
2022-11-23T18:32:52.515Z,9.17
2022-11-23T18:37:54.157Z,9.15
2022-11-23T18:42:58.280Z,9.13
2022-11-23T18:47:59.961Z,9.12
2022-11-23T18:53:02.858Z,9.09
2022-11-23T18:58:05.587Z,9.06
2022-11-23T19:03:10.383Z,9.04
2022-11-23T19:08:13.106Z,9.01
2022-11-23T19:13:14.866Z,9.02
2022-11-23T19:18:18.820Z,9.01
2022-11-23T19:23:21.898Z,9.00
2022-11-23T19:28:24.291Z,8.98
2022-11-23T19:33:26.045Z,8.96
2022-11-23T19:38:27.728Z,8.94
2022-11-23T19:43:31.848Z,8.94
2022-11-23T19:48:34.586Z,8.91
2022-11-23T19:53:38.387Z,8.88
2022-11-23T19:58:42.840Z,8.84
2022-11-23T20:03:48.262Z,8.82
2022-11-23T20:09:00.002Z,8.80
2022-11-23T20:14:01.805Z,8.80
2022-11-23T20:19:07.948Z,8.80
2022-11-23T20:24:14.248Z,8.80
2022-11-23T20:29:16.463Z,8.80
2022-11-23T20:34:21.315Z,8.80
2022-11-23T20:39:27.070Z,8.80
2022-11-23T20:44:33.900Z,8.78
2022-11-23T20:49:36.474Z,8.78
2022-11-23T20:54:38.613Z,8.79
2022-11-23T20:59:41.979Z,8.80
2022-11-23T21:04:47.762Z,8.78
2022-11-23T21:09:49.453Z,8.78
2022-11-23T21:14:51.078Z,8.79
2022-11-23T21:19:52.700Z,8.75
2022-11-23T21:24:54.324Z,8.71
2022-11-23T21:29:55.981Z,8.69
2022-11-23T21:34:59.301Z,8.68
2022-11-23T21:40:01.101Z,8.66
2022-11-23T21:45:02.902Z,8.65
2022-11-23T21:50:05.752Z,8.62
2022-11-23T21:55:08.080Z,8.56
2022-11-23T22:00:10.272Z,8.49
2022-11-23T22:05:13.799Z,8.42
2022-11-23T22:10:16.677Z,8.37
2022-11-23T22:15:18.305Z,8.33
2022-11-23T22:20:20.602Z,8.26
2022-11-23T22:25:22.254Z,8.20
2022-11-23T22:30:24.229Z,8.16
2022-11-23T22:35:27.179Z,8.13
2022-11-23T22:40:32.720Z,8.10
2022-11-23T22:45:34.507Z,8.11
2022-11-23T22:50:37.327Z,8.08
2022-11-23T22:55:39.237Z,8.07
2022-11-23T23:00:42.046Z,8.08
2022-11-23T23:05:54.030Z,8.10
2022-11-23T23:10:57.435Z,8.14
2022-11-23T23:16:04.525Z,8.18
2022-11-23T23:21:15.751Z,8.19
2022-11-23T23:26:20.636Z,8.19
2022-11-23T23:31:23.236Z,8.20
2022-11-23T23:36:24.997Z,8.14
2022-11-23T23:41:27.224Z,8.10
2022-11-23T23:46:29.265Z,8.05
2022-11-23T23:51:30.969Z,8.06
2022-11-23T23:56:32.996Z,8.06
